createdAt,value
2022-10-12T00:04:17.305Z,1.42
2022-10-12T00:09:38.079Z,1.20
2022-10-12T00:14:58.676Z,1.20
2022-10-12T00:20:19.476Z,1.92
2022-10-12T00:25:41.518Z,1.38
2022-10-12T00:31:07.653Z,1.20
2022-10-12T00:36:32.603Z,4.15
2022-10-12T00:41:53.699Z,2.50
2022-10-12T00:47:29.575Z,1.40
2022-10-12T00:52:53.590Z,1.60
2022-10-12T00:58:15.164Z,1.75
2022-10-12T01:03:36.836Z,2.13
2022-10-12T01:08:58.152Z,2.33
2022-10-12T01:14:19.646Z,2.28
2022-10-12T01:20:10.592Z,2.42
2022-10-12T01:25:56.661Z,2.10
2022-10-12T01:31:30.059Z,2.83
2022-10-12T01:37:21.416Z,2.70
2022-10-12T01:42:44.490Z,3.30
2022-10-12T01:48:05.870Z,3.95
2022-10-12T01:53:34.171Z,3.35
2022-10-12T01:59:11.511Z,3.35
2022-10-12T02:04:58.600Z,3.40
2022-10-12T02:10:35.522Z,3.42
2022-10-12T02:16:00.616Z,3.60
2022-10-12T02:21:26.132Z,3.65
2022-10-12T02:26:49.466Z,3.08
2022-10-12T02:32:19.193Z,2.80
2022-10-12T02:38:18.651Z,3.22
2022-10-12T02:43:48.106Z,3.15
2022-10-12T02:49:11.743Z,2.80
2022-10-12T02:54:32.393Z,2.80
2022-10-12T02:59:53.188Z,2.80
2022-10-12T03:05:13.886Z,2.85
2022-10-12T03:10:34.633Z,3.40
2022-10-12T03:16:01.588Z,3.67
2022-10-12T03:21:22.363Z,4.05
2022-10-12T03:26:43.128Z,3.08
2022-10-12T03:32:03.776Z,3.42
2022-10-12T03:37:24.498Z,3.45
2022-10-12T03:42:45.211Z,3.67
2022-10-12T03:48:07.142Z,3.20
2022-10-12T03:53:27.926Z,3.28
2022-10-12T03:58:48.542Z,2.95
2022-10-12T04:04:10.874Z,2.28
2022-10-12T04:09:31.680Z,2.90
2022-10-12T04:14:54.614Z,2.85
2022-10-12T04:20:15.510Z,2.45
2022-10-12T04:25:36.058Z,2.83
2022-10-12T04:30:56.412Z,2.58
2022-10-12T04:36:16.976Z,2.63
2022-10-12T04:41:39.584Z,2.58
2022-10-12T04:47:03.126Z,2.88
2022-10-12T04:52:23.864Z,2.72
2022-10-12T04:57:44.576Z,2.72
2022-10-12T05:03:05.667Z,2.80
2022-10-12T05:08:26.526Z,3.13
2022-10-12T05:13:47.611Z,2.65
2022-10-12T05:19:08.371Z,2.80
2022-10-12T05:24:29.097Z,3.08
2022-10-12T05:29:49.630Z,2.70
2022-10-12T05:35:11.329Z,3.30
2022-10-12T05:40:32.970Z,3.60
2022-10-12T05:45:53.487Z,4.70
2022-10-12T05:51:14.324Z,3.10
2022-10-12T05:56:34.841Z,3.70
2022-10-12T06:01:55.575Z,3.53
2022-10-12T06:07:16.211Z,3.35
2022-10-12T06:12:37.283Z,3.92
2022-10-12T06:17:58.304Z,4.15
2022-10-12T06:23:20.242Z,3.45
2022-10-12T06:28:41.701Z,4.50
2022-10-12T06:34:02.257Z,4.90
2022-10-12T06:39:25.617Z,3.50
2022-10-12T06:44:46.593Z,4.65
2022-10-12T06:50:08.931Z,3.97
2022-10-12T06:55:29.699Z,5.43
2022-10-12T07:00:50.703Z,4.35
2022-10-12T07:06:14.059Z,3.60
2022-10-12T07:11:35.088Z,4.30
2022-10-12T07:16:55.822Z,3.22
2022-10-12T07:22:16.387Z,3.78
2022-10-12T07:27:37.446Z,5.32
2022-10-12T07:32:58.267Z,9.07
2022-10-12T07:38:18.824Z,4.72
2022-10-12T07:43:39.436Z,3.92
2022-10-12T07:49:00.309Z,3.40
2022-10-12T07:54:26.796Z,3.45
2022-10-12T07:59:49.717Z,3.70
2022-10-12T08:05:10.473Z,3.08
2022-10-12T08:10:34.311Z,2.67
2022-10-12T08:15:55.242Z,4.45
2022-10-12T08:21:17.434Z,4.20
2022-10-12T08:26:38.634Z,7.70
2022-10-12T08:32:01.838Z,2.97
2022-10-12T08:37:22.873Z,3.05
2022-10-12T08:42:56.646Z,3.05
2022-10-12T08:48:24.571Z,3.53
2022-10-12T08:53:55.742Z,3.83
2022-10-12T08:59:19.018Z,2.92
2022-10-12T09:04:59.601Z,3.20
2022-10-12T09:10:20.516Z,3.00
2022-10-12T09:15:52.944Z,3.20
2022-10-12T09:21:18.315Z,3.00
2022-10-12T09:26:42.080Z,2.63
2022-10-12T09:32:49.224Z,3.05
2022-10-12T09:38:10.698Z,2.10
2022-10-12T09:43:31.609Z,2.53
2022-10-12T09:49:00.420Z,2.92
2022-10-12T09:54:28.380Z,3.13
2022-10-12T09:59:49.821Z,2.75
2022-10-12T10:05:34.283Z,2.78
2022-10-12T10:10:57.034Z,2.42
2022-10-12T10:16:20.286Z,2.55
2022-10-12T10:21:42.031Z,2.30
2022-10-12T10:27:04.935Z,2.10
2022-10-12T10:32:29.989Z,2.10
2022-10-12T10:38:00.989Z,1.73
2022-10-12T10:43:30.622Z,2.13
2022-10-12T10:54:23.701Z,2.25
2022-10-12T10:59:47.319Z,1.30
2022-10-12T11:05:16.910Z,2.22
2022-10-12T11:10:46.780Z,1.58
2022-10-12T11:16:28.639Z,3.75
2022-10-12T11:21:54.673Z,2.00
2022-10-12T11:27:25.827Z,3.28
2022-10-12T11:32:52.618Z,2.50
2022-10-12T11:38:42.514Z,2.13
2022-10-12T11:44:24.132Z,3.35
2022-10-12T11:49:59.843Z,2.20
2022-10-12T11:55:38.560Z,2.05
2022-10-12T12:01:17.628Z,2.58
2022-10-12T12:07:02.738Z,2.17
2022-10-12T12:12:29.049Z,1.85
2022-10-12T12:18:29.108Z,1.95
2022-10-12T12:23:53.525Z,3.45
2022-10-12T12:29:26.853Z,2.17
2022-10-12T12:35:00.729Z,2.58
2022-10-12T12:40:23.056Z,2.70
2022-10-12T12:45:55.690Z,3.20
2022-10-12T12:51:20.546Z,2.88
2022-10-12T12:57:07.647Z,2.45
2022-10-12T13:03:19.534Z,2.50
2022-10-12T13:09:08.623Z,2.85
2022-10-12T13:14:53.864Z,2.80
2022-10-12T13:20:17.798Z,3.17
2022-10-12T13:25:48.282Z,3.45
2022-10-12T13:31:18.253Z,2.90
2022-10-12T13:37:10.699Z,3.33
2022-10-12T13:42:34.896Z,2.67
2022-10-12T13:48:04.459Z,3.53
2022-10-12T13:53:33.747Z,4.10
2022-10-12T13:59:04.253Z,3.25
2022-10-12T14:04:30.132Z,3.30
2022-10-12T14:10:17.071Z,3.83
2022-10-12T14:15:40.592Z,3.63
2022-10-12T14:21:26.872Z,3.55
2022-10-12T14:26:57.831Z,2.95
2022-10-12T14:32:26.856Z,3.15
2022-10-12T14:37:48.606Z,2.97
2022-10-12T14:43:12.527Z,3.10
2022-10-12T14:48:33.278Z,3.28
2022-10-12T14:54:04.171Z,3.53
2022-10-12T14:59:24.900Z,3.58
2022-10-12T15:04:46.387Z,3.80
2022-10-12T15:10:08.092Z,12.48
2022-10-12T15:15:40.731Z,4.93
2022-10-12T15:21:01.718Z,3.45
2022-10-12T15:26:23.367Z,5.80
2022-10-12T15:31:47.698Z,4.32
2022-10-12T15:37:11.728Z,5.40
2022-10-12T15:42:32.440Z,3.90
2022-10-12T15:47:53.901Z,4.18
2022-10-12T15:53:24.357Z,7.32
2022-10-12T15:58:45.690Z,7.78
2022-10-12T16:04:07.115Z,6.50
2022-10-12T16:09:28.148Z,5.30
2022-10-12T16:14:48.820Z,3.75
2022-10-12T16:20:10.689Z,4.40
2022-10-12T16:25:31.623Z,6.25
2022-10-12T16:30:52.960Z,8.38
2022-10-12T16:36:16.290Z,8.10
2022-10-12T16:41:37.239Z,7.43
2022-10-12T16:46:58.044Z,7.82
2022-10-12T16:52:19.840Z,7.93
2022-10-12T16:57:41.429Z,7.95
2022-10-12T17:03:02.093Z,7.05
2022-10-12T17:08:22.794Z,7.70
2022-10-12T17:13:48.770Z,7.05
2022-10-12T17:19:09.890Z,8.50
2022-10-12T17:24:32.350Z,7.35
2022-10-12T17:29:53.568Z,7.22
2022-10-12T17:35:14.749Z,6.10
2022-10-12T17:40:39.287Z,5.45
2022-10-12T17:46:00.278Z,6.10
2022-10-12T17:51:20.935Z,5.75
2022-10-12T17:56:44.113Z,6.45
2022-10-12T18:02:09.222Z,6.80
2022-10-12T18:07:30.309Z,8.10
2022-10-12T18:12:52.251Z,7.82
2022-10-12T18:18:15.243Z,8.18
2022-10-12T18:23:36.942Z,9.25
2022-10-12T18:29:00.609Z,7.90
2022-10-12T18:34:21.394Z,7.35
2022-10-12T18:39:44.033Z,11.23
2022-10-12T18:45:05.462Z,10.63
2022-10-12T18:50:26.957Z,10.60
2022-10-12T18:55:48.615Z,12.18
2022-10-12T19:01:14.939Z,11.70
2022-10-12T19:06:38.169Z,13.02
2022-10-12T19:11:59.081Z,13.63
2022-10-12T19:17:23.159Z,13.38
2022-10-12T19:22:43.809Z,14.55
2022-10-12T19:28:04.503Z,14.10
2022-10-12T19:33:27.322Z,13.60
2022-10-12T19:38:48.404Z,15.48
2022-10-12T19:44:11.407Z,16.35
2022-10-12T19:49:36.622Z,17.88
2022-10-12T19:54:58.607Z,16.25
2022-10-12T20:00:19.740Z,16.30
2022-10-12T20:05:46.403Z,16.35
2022-10-12T20:11:08.865Z,16.92
2022-10-12T20:16:35.047Z,16.80
2022-10-12T20:21:56.084Z,14.05
2022-10-12T20:27:17.181Z,14.93
2022-10-12T20:32:38.149Z,14.75
2022-10-12T20:38:00.009Z,14.32
2022-10-12T20:43:20.972Z,14.18
2022-10-12T20:48:44.453Z,13.98
2022-10-12T20:54:06.578Z,14.93
2022-10-12T20:59:27.122Z,13.80
2022-10-12T21:04:51.245Z,14.75
2022-10-12T21:10:11.993Z,13.18
2022-10-12T21:15:32.567Z,14.32
2022-10-12T21:20:58.524Z,13.50
2022-10-12T21:26:21.757Z,14.55
2022-10-12T21:31:42.602Z,13.73
2022-10-12T21:37:03.412Z,12.10
2022-10-12T21:42:24.154Z,10.98
2022-10-12T21:47:44.701Z,9.63
2022-10-12T21:53:05.189Z,9.48
2022-10-12T21:58:26.011Z,9.05
2022-10-12T22:03:49.841Z,7.85
2022-10-12T22:09:16.893Z,7.45
2022-10-12T22:14:37.451Z,7.10
2022-10-12T22:19:58.351Z,7.85
2022-10-12T22:25:18.913Z,7.90
2022-10-12T22:30:40.129Z,8.35
2022-10-12T22:36:01.563Z,8.20
2022-10-12T22:41:23.413Z,8.18
2022-10-12T22:46:44.319Z,9.38
2022-10-12T22:52:05.079Z,7.85
2022-10-12T22:57:30.118Z,7.43
2022-10-12T23:02:50.629Z,7.63
2022-10-12T23:08:11.157Z,7.13
2022-10-12T23:13:33.052Z,6.82
2022-10-12T23:18:59.818Z,6.88
2022-10-12T23:24:20.426Z,7.15
2022-10-12T23:29:41.095Z,6.20
2022-10-12T23:35:02.347Z,7.00
2022-10-12T23:40:22.875Z,6.47
2022-10-12T23:45:44.287Z,7.20
2022-10-12T23:51:09.747Z,8.27
2022-10-12T23:56:30.446Z,9.52
